createdAt,value
2022-07-27T00:01:44.425Z,3.05
2022-07-27T00:04:18.994Z,3.92
2022-07-27T00:06:45.988Z,4.20
2022-07-27T00:09:13.124Z,3.53
2022-07-27T00:11:40.020Z,4.10
2022-07-27T00:14:06.730Z,3.28
2022-07-27T00:16:33.686Z,3.53
2022-07-27T00:19:01.023Z,4.18
2022-07-27T00:21:27.818Z,4.03
2022-07-27T00:23:55.119Z,3.65
2022-07-27T00:26:21.967Z,4.78
2022-07-27T00:28:49.341Z,3.60
2022-07-27T00:31:16.911Z,4.18
2022-07-27T00:33:43.713Z,4.25
2022-07-27T00:36:11.008Z,3.47
2022-07-27T00:38:37.921Z,3.75
2022-07-27T00:41:05.007Z,4.18
2022-07-27T00:43:46.459Z,2.83
2022-07-27T00:46:13.158Z,3.42
2022-07-27T00:48:39.969Z,3.13
2022-07-27T00:51:07.043Z,3.35
2022-07-27T00:53:35.476Z,3.70
2022-07-27T00:56:02.150Z,3.97
2022-07-27T00:58:29.601Z,4.05
2022-07-27T01:00:56.340Z,4.32
2022-07-27T01:03:23.354Z,4.40
2022-07-27T01:05:57.895Z,3.83
2022-07-27T01:08:25.331Z,3.78
2022-07-27T01:10:52.840Z,4.07
2022-07-27T01:13:19.687Z,3.70
2022-07-27T01:15:46.434Z,3.53
2022-07-27T01:18:29.927Z,3.30
2022-07-27T01:20:57.913Z,3.83
2022-07-27T01:23:25.493Z,3.78
2022-07-27T01:25:52.516Z,2.55
2022-07-27T01:28:19.320Z,3.67
2022-07-27T01:30:46.124Z,3.95
2022-07-27T01:33:12.863Z,2.75
2022-07-27T01:35:40.512Z,5.50
2022-07-27T01:38:09.094Z,5.45
2022-07-27T01:40:37.012Z,3.47
2022-07-27T01:43:07.206Z,3.08
2022-07-27T01:45:34.089Z,4.65
2022-07-27T01:48:01.191Z,3.40
2022-07-27T01:50:28.078Z,3.50
2022-07-27T01:52:54.725Z,3.95
2022-07-27T01:55:21.436Z,3.45
2022-07-27T01:57:48.348Z,6.60
2022-07-27T02:00:15.330Z,6.68
2022-07-27T02:02:42.576Z,3.75
2022-07-27T02:05:13.025Z,3.70
2022-07-27T02:07:40.814Z,4.30
2022-07-27T02:10:08.582Z,4.35
2022-07-27T02:12:38.231Z,3.13
2022-07-27T02:15:17.649Z,2.97
2022-07-27T02:17:46.739Z,3.40
2022-07-27T02:20:17.080Z,3.97
2022-07-27T02:22:44.476Z,4.60
2022-07-27T02:25:12.713Z,4.30
2022-07-27T02:27:40.609Z,4.10
2022-07-27T02:30:08.137Z,3.60
2022-07-27T02:32:35.197Z,4.47
2022-07-27T02:35:03.045Z,5.43
2022-07-27T02:37:45.148Z,3.05
2022-07-27T02:40:12.764Z,5.28
2022-07-27T02:42:39.479Z,5.22
2022-07-27T02:45:06.691Z,6.03
2022-07-27T02:47:34.821Z,5.00
2022-07-27T02:50:02.341Z,5.10
2022-07-27T02:52:29.071Z,3.60
2022-07-27T02:54:55.810Z,3.13
2022-07-27T02:57:22.522Z,4.47
2022-07-27T02:59:49.249Z,3.90
2022-07-27T03:02:16.142Z,3.13
2022-07-27T03:04:42.852Z,4.30
2022-07-27T03:07:09.580Z,4.20
2022-07-27T03:09:36.289Z,3.58
2022-07-27T03:12:03.717Z,2.80
2022-07-27T03:14:30.438Z,3.80
2022-07-27T03:16:57.168Z,2.53
2022-07-27T03:19:29.721Z,3.72
2022-07-27T03:21:57.002Z,4.57
2022-07-27T03:24:23.681Z,5.18
2022-07-27T03:26:50.352Z,5.28
2022-07-27T03:29:17.132Z,4.90
2022-07-27T03:31:45.554Z,4.43
2022-07-27T03:34:13.760Z,4.88
2022-07-27T03:36:40.516Z,4.72
2022-07-27T03:39:07.538Z,7.60
2022-07-27T03:41:34.267Z,7.90
2022-07-27T03:44:00.948Z,5.05
2022-07-27T03:46:27.733Z,5.28
2022-07-27T03:48:54.547Z,6.82
2022-07-27T03:51:21.897Z,7.50
2022-07-27T03:53:48.733Z,10.55
2022-07-27T03:56:15.477Z,8.43
2022-07-27T03:58:42.424Z,5.65
2022-07-27T04:01:09.188Z,6.40
2022-07-27T04:03:37.347Z,4.53
2022-07-27T04:06:05.610Z,6.15
2022-07-27T04:08:32.404Z,5.57
2022-07-27T04:10:59.085Z,10.20
2022-07-27T04:13:26.925Z,6.50
2022-07-27T04:15:56.119Z,5.22
2022-07-27T04:18:22.847Z,5.18
2022-07-27T04:20:49.561Z,5.38
2022-07-27T04:23:16.247Z,8.55
2022-07-27T04:25:42.953Z,6.93
2022-07-27T04:28:10.533Z,5.18
2022-07-27T04:30:37.352Z,8.32
2022-07-27T04:33:05.309Z,7.70
2022-07-27T04:35:32.019Z,7.90
2022-07-27T04:37:59.794Z,9.00
2022-07-27T04:40:29.816Z,11.45
2022-07-27T04:42:56.542Z,8.05
2022-07-27T04:45:23.275Z,8.98
2022-07-27T04:47:50.149Z,10.30
2022-07-27T04:50:16.968Z,8.30
2022-07-27T04:52:43.760Z,7.65
2022-07-27T04:55:10.779Z,7.95
2022-07-27T04:57:37.654Z,11.02
2022-07-27T05:00:05.650Z,10.38
2022-07-27T05:02:32.482Z,8.80
2022-07-27T05:05:00.111Z,7.82
2022-07-27T05:07:27.069Z,7.78
2022-07-27T05:09:53.964Z,8.68
2022-07-27T05:12:20.703Z,7.55
2022-07-27T05:14:47.479Z,5.43
2022-07-27T05:17:14.215Z,5.35
2022-07-27T05:19:41.138Z,6.00
2022-07-27T05:22:09.068Z,5.60
2022-07-27T05:24:35.828Z,7.55
2022-07-27T05:27:02.529Z,7.95
2022-07-27T05:29:29.249Z,7.43
2022-07-27T05:31:55.987Z,5.63
2022-07-27T05:34:22.704Z,5.20
2022-07-27T05:36:49.475Z,4.80
2022-07-27T05:39:16.440Z,5.68
2022-07-27T05:41:43.352Z,4.78
2022-07-27T05:44:10.322Z,4.53
2022-07-27T05:46:37.096Z,3.95
2022-07-27T05:49:04.857Z,5.80
2022-07-27T05:51:31.933Z,4.60
2022-07-27T05:53:59.452Z,6.00
2022-07-27T05:56:26.566Z,5.00
2022-07-27T05:58:54.009Z,5.35
2022-07-27T06:01:21.182Z,4.10
2022-07-27T06:03:48.019Z,5.18
2022-07-27T06:06:33.303Z,4.53
2022-07-27T06:09:02.256Z,4.55
2022-07-27T06:11:29.034Z,4.72
2022-07-27T06:13:56.150Z,3.65
2022-07-27T06:16:23.624Z,4.88
2022-07-27T06:18:50.806Z,3.63
2022-07-27T06:21:17.675Z,3.25
2022-07-27T06:23:44.466Z,4.65
2022-07-27T06:26:11.219Z,4.85
2022-07-27T06:28:37.929Z,5.03
2022-07-27T06:31:06.697Z,4.45
2022-07-27T06:33:33.629Z,5.28
2022-07-27T06:36:01.572Z,4.10
2022-07-27T06:38:29.229Z,4.43
2022-07-27T06:40:56.496Z,4.10
2022-07-27T06:43:25.342Z,3.60
2022-07-27T06:45:54.284Z,4.53
2022-07-27T06:48:21.482Z,4.47
2022-07-27T06:50:49.416Z,4.45
2022-07-27T06:53:20.808Z,3.75
2022-07-27T06:55:48.347Z,5.13
2022-07-27T06:58:15.060Z,4.45
2022-07-27T07:00:42.086Z,3.92
2022-07-27T07:03:09.097Z,4.90
2022-07-27T07:05:43.420Z,4.15
2022-07-27T07:08:12.108Z,4.13
2022-07-27T07:10:40.088Z,3.83
2022-07-27T07:13:08.034Z,4.20
2022-07-27T07:15:35.686Z,4.18
2022-07-27T07:18:03.824Z,2.92
2022-07-27T07:20:31.076Z,3.17
2022-07-27T07:22:58.538Z,3.22
2022-07-27T07:25:25.774Z,3.13
2022-07-27T07:27:52.638Z,3.70
2022-07-27T07:30:20.096Z,4.25
2022-07-27T07:32:46.814Z,3.03
2022-07-27T07:35:13.639Z,3.20
2022-07-27T07:37:40.459Z,3.15
2022-07-27T07:40:39.926Z,3.63
2022-07-27T07:43:01.319Z,4.05
2022-07-27T07:45:29.559Z,3.30
2022-07-27T07:47:57.028Z,3.70
2022-07-27T07:50:24.472Z,3.17
2022-07-27T07:52:52.687Z,4.32
2022-07-27T07:55:21.047Z,4.13
2022-07-27T07:57:48.696Z,3.03
2022-07-27T08:00:18.445Z,4.40
2022-07-27T08:02:49.478Z,3.17
2022-07-27T08:05:17.282Z,4.35
2022-07-27T08:07:45.126Z,3.20
2022-07-27T08:10:13.085Z,3.75
2022-07-27T08:12:42.516Z,3.55
2022-07-27T08:15:10.230Z,3.28
2022-07-27T08:17:37.044Z,2.95
2022-07-27T08:20:05.277Z,6.05
2022-07-27T08:22:33.647Z,6.50
2022-07-27T08:25:00.369Z,3.70
2022-07-27T08:27:27.193Z,3.33
2022-07-27T08:29:54.145Z,3.72
2022-07-27T08:32:21.572Z,3.55
2022-07-27T08:34:48.421Z,4.88
2022-07-27T08:37:15.738Z,4.78
2022-07-27T08:44:56.259Z,3.50
2022-07-27T08:47:23.454Z,4.60
2022-07-27T08:49:50.298Z,4.55
2022-07-27T08:52:17.182Z,3.63
2022-07-27T08:54:44.079Z,3.75
2022-07-27T08:57:11.454Z,3.75
2022-07-27T08:59:38.296Z,3.95
2022-07-27T09:02:09.588Z,3.70
2022-07-27T09:04:36.346Z,3.63
2022-07-27T09:07:03.081Z,3.83
2022-07-27T09:09:44.948Z,4.22
2022-07-27T09:12:11.695Z,4.53
2022-07-27T09:14:40.279Z,4.32
2022-07-27T09:20:19.551Z,3.42
2022-07-27T09:22:54.375Z,4.07
2022-07-27T09:25:52.590Z,4.35
2022-07-27T09:28:13.554Z,4.28
2022-07-27T09:30:44.023Z,4.32
2022-07-27T09:33:10.989Z,3.95
2022-07-27T09:35:38.047Z,4.07
2022-07-27T09:38:21.807Z,3.95
2022-07-27T09:40:58.563Z,4.13
2022-07-27T09:46:12.282Z,3.47
2022-07-27T09:48:39.178Z,5.05
2022-07-27T09:51:55.915Z,4.85
2022-07-27T09:53:59.842Z,4.40
2022-07-27T09:56:32.809Z,3.58
2022-07-27T09:59:19.511Z,4.28
2022-07-27T10:01:52.535Z,6.30
2022-07-27T10:04:21.234Z,13.30
2022-07-27T10:07:02.338Z,35.97
2022-07-27T10:09:31.162Z,19.35
2022-07-27T10:11:58.498Z,10.80
2022-07-27T10:14:25.833Z,24.02
2022-07-27T10:16:53.045Z,7.72
2022-07-27T10:19:28.325Z,6.65
2022-07-27T10:21:54.989Z,6.07
2022-07-27T10:24:36.622Z,6.07
2022-07-27T10:27:21.244Z,5.20
2022-07-27T10:29:51.404Z,5.35
2022-07-27T10:32:45.032Z,4.18
2022-07-27T10:35:34.883Z,5.15
2022-07-27T10:38:10.197Z,3.88
2022-07-27T10:40:37.177Z,4.28
2022-07-27T10:43:20.981Z,3.70
2022-07-27T10:46:02.154Z,3.55
2022-07-27T10:48:37.779Z,3.80
2022-07-27T10:51:06.714Z,3.55
2022-07-27T10:53:55.051Z,2.92
2022-07-27T10:56:50.532Z,3.97
2022-07-27T11:00:06.854Z,2.35
2022-07-27T11:02:41.173Z,2.80
2022-07-27T11:05:29.081Z,3.80
2022-07-27T11:08:34.721Z,2.30
2022-07-27T11:10:48.200Z,3.35
2022-07-27T11:13:17.070Z,2.67
2022-07-27T11:15:55.857Z,3.40
2022-07-27T11:18:31.104Z,3.13
2022-07-27T11:21:33.983Z,3.35
2022-07-27T11:24:03.949Z,2.40
2022-07-27T11:26:33.680Z,3.35
2022-07-27T11:29:00.370Z,3.60
2022-07-27T11:31:53.002Z,3.00
2022-07-27T11:34:14.682Z,3.03
2022-07-27T11:36:52.541Z,3.78
2022-07-27T11:42:21.059Z,3.53
2022-07-27T11:44:51.086Z,3.95
2022-07-27T11:47:19.707Z,3.90
2022-07-27T11:49:47.145Z,4.25
2022-07-27T11:52:17.151Z,3.72
2022-07-27T11:54:43.896Z,3.97
2022-07-27T11:57:12.690Z,3.95
2022-07-27T11:59:43.573Z,3.60
2022-07-27T12:02:17.820Z,4.20
2022-07-27T12:04:46.788Z,3.67
2022-07-27T12:07:31.002Z,3.42
2022-07-27T12:10:07.162Z,3.10
2022-07-27T12:12:37.904Z,2.63
2022-07-27T12:15:42.784Z,2.97
2022-07-27T12:18:00.489Z,3.85
2022-07-27T12:20:35.074Z,4.43
2022-07-27T12:23:07.404Z,3.28
2022-07-27T12:25:35.413Z,4.10
2022-07-27T12:28:25.684Z,4.22
2022-07-27T12:30:52.669Z,3.67
2022-07-27T12:33:38.639Z,2.75
2022-07-27T12:36:07.193Z,3.05
2022-07-27T12:38:40.776Z,3.72
2022-07-27T12:41:07.763Z,3.05
2022-07-27T12:43:53.114Z,3.67
2022-07-27T12:46:19.852Z,2.88
2022-07-27T12:48:46.622Z,3.50
2022-07-27T12:51:13.407Z,2.75
2022-07-27T12:53:40.154Z,3.13
2022-07-27T12:56:10.031Z,4.38
2022-07-27T12:58:38.182Z,4.45
2022-07-27T13:01:05.591Z,3.72
2022-07-27T13:03:33.748Z,4.00
2022-07-27T13:06:05.830Z,3.10
2022-07-27T13:08:37.597Z,3.97
2022-07-27T13:11:04.338Z,3.80
2022-07-27T13:13:31.023Z,3.55
2022-07-27T13:15:57.727Z,2.70
2022-07-27T13:18:24.437Z,3.10
2022-07-27T13:20:54.214Z,3.67
2022-07-27T13:23:21.202Z,2.67
2022-07-27T13:25:47.929Z,4.10
2022-07-27T13:28:14.633Z,4.30
2022-07-27T13:30:41.421Z,4.13
2022-07-27T13:33:08.570Z,4.10
2022-07-27T13:35:35.619Z,3.80
2022-07-27T13:38:02.465Z,2.97
2022-07-27T13:40:29.506Z,3.63
2022-07-27T13:42:56.284Z,3.80
2022-07-27T13:45:23.016Z,3.83
2022-07-27T13:47:49.816Z,4.00
2022-07-27T13:50:19.761Z,2.75
2022-07-27T13:52:49.829Z,4.47
2022-07-27T13:55:17.362Z,3.53
2022-07-27T13:57:44.774Z,4.07
2022-07-27T14:00:12.190Z,4.45
2022-07-27T14:02:39.928Z,5.18
2022-07-27T14:05:09.736Z,4.07
2022-07-27T14:07:40.094Z,3.95
2022-07-27T14:10:26.033Z,3.60
2022-07-27T14:12:58.724Z,3.53
2022-07-27T14:15:25.929Z,4.20
2022-07-27T14:17:52.646Z,4.07
2022-07-27T14:20:19.362Z,4.43
2022-07-27T14:22:47.583Z,4.40
2022-07-27T14:25:14.877Z,3.88
2022-07-27T14:27:41.669Z,3.70
2022-07-27T14:30:09.201Z,4.25
2022-07-27T14:32:36.658Z,4.30
2022-07-27T14:35:04.946Z,6.10
2022-07-27T14:37:31.882Z,4.22
2022-07-27T14:39:58.619Z,3.55
2022-07-27T14:42:25.333Z,4.57
2022-07-27T14:44:52.654Z,3.80
2022-07-27T14:47:19.683Z,3.75
2022-07-27T14:49:46.627Z,3.83
2022-07-27T14:52:13.718Z,4.28
2022-07-27T14:54:44.154Z,4.10
2022-07-27T14:57:11.236Z,3.45
2022-07-27T14:59:38.748Z,5.53
2022-07-27T15:02:06.209Z,4.55
2022-07-27T15:04:33.535Z,3.65
2022-07-27T15:07:00.812Z,4.30
2022-07-27T15:09:30.546Z,3.70
2022-07-27T15:11:58.484Z,2.88
2022-07-27T15:14:25.518Z,3.58
2022-07-27T15:16:53.723Z,3.10
2022-07-27T15:19:20.452Z,4.15
2022-07-27T15:21:50.192Z,5.20
2022-07-27T15:24:16.969Z,4.80
2022-07-27T15:26:43.634Z,4.53
2022-07-27T15:29:14.528Z,4.47
2022-07-27T15:31:41.906Z,4.82
2022-07-27T15:34:08.711Z,3.35
2022-07-27T15:36:37.697Z,4.00
2022-07-27T15:39:09.864Z,4.75
2022-07-27T15:41:37.826Z,4.60
2022-07-27T15:44:04.821Z,4.30
2022-07-27T15:46:32.696Z,4.82
2022-07-27T15:49:00.876Z,3.53
2022-07-27T15:51:27.640Z,5.30
2022-07-27T15:53:54.623Z,3.90
2022-07-27T15:56:21.347Z,6.60
2022-07-27T15:58:48.075Z,4.93
2022-07-27T16:01:14.898Z,4.72
2022-07-27T16:03:41.786Z,4.85
2022-07-27T16:06:08.599Z,4.68
2022-07-27T16:08:35.517Z,5.20
2022-07-27T16:11:02.238Z,5.82
2022-07-27T16:13:28.930Z,5.90
2022-07-27T16:16:14.459Z,3.70
2022-07-27T16:18:41.289Z,5.07
2022-07-27T16:21:08.261Z,4.30
2022-07-27T16:23:35.102Z,4.35
2022-07-27T16:26:05.020Z,3.65
2022-07-27T16:28:34.233Z,4.57
2022-07-27T16:31:01.118Z,4.35
2022-07-27T16:33:28.022Z,6.72
2022-07-27T16:35:54.802Z,6.70
2022-07-27T16:38:21.516Z,6.20
2022-07-27T16:40:48.293Z,5.18
2022-07-27T16:43:16.069Z,4.35
2022-07-27T16:45:42.797Z,4.22
2022-07-27T16:48:10.011Z,5.82
2022-07-27T16:50:36.725Z,4.85
2022-07-27T16:53:03.557Z,4.32
2022-07-27T16:55:30.389Z,4.15
2022-07-27T16:57:57.135Z,4.88
2022-07-27T17:00:23.928Z,11.23
2022-07-27T17:02:50.823Z,7.55
2022-07-27T17:05:17.629Z,4.68
2022-07-27T17:07:45.790Z,4.43
2022-07-27T17:10:12.629Z,10.50
2022-07-27T17:12:53.543Z,5.38
2022-07-27T17:15:21.050Z,6.82
2022-07-27T17:17:47.735Z,5.13
2022-07-27T17:20:14.447Z,4.75
2022-07-27T17:22:41.193Z,7.75
2022-07-27T17:25:08.194Z,6.90
2022-07-27T17:27:36.157Z,4.32
2022-07-27T17:30:04.755Z,4.63
2022-07-27T17:32:31.594Z,5.13
2022-07-27T17:34:58.318Z,4.70
2022-07-27T17:37:25.130Z,3.55
2022-07-27T17:39:51.905Z,4.50
2022-07-27T17:42:18.747Z,5.30
2022-07-27T17:44:45.431Z,4.20
2022-07-27T17:47:12.137Z,4.20
2022-07-27T17:49:38.911Z,4.63
2022-07-27T17:52:07.053Z,4.00
2022-07-27T17:54:34.035Z,4.57
2022-07-27T17:57:00.718Z,4.38
2022-07-27T17:59:37.697Z,5.07
2022-07-27T18:02:05.453Z,4.85
2022-07-27T18:04:38.924Z,3.70
2022-07-27T18:07:06.257Z,6.75
2022-07-27T18:09:33.693Z,4.28
2022-07-27T18:12:00.610Z,4.68
2022-07-27T18:14:27.464Z,4.45
2022-07-27T18:16:54.414Z,3.75
2022-07-27T18:19:21.262Z,3.55
2022-07-27T18:21:47.993Z,4.45
2022-07-27T18:24:14.927Z,6.60
2022-07-27T18:26:41.672Z,3.85
2022-07-27T18:29:08.707Z,3.67
2022-07-27T18:31:35.528Z,4.05
2022-07-27T18:34:02.863Z,4.47
2022-07-27T18:36:29.760Z,4.00
2022-07-27T18:38:57.873Z,3.55
2022-07-27T18:41:25.089Z,4.75
2022-07-27T18:43:52.014Z,5.22
2022-07-27T18:46:22.532Z,5.43
2022-07-27T18:48:50.046Z,4.05
2022-07-27T18:51:17.148Z,4.75
2022-07-27T18:53:46.746Z,4.60
2022-07-27T18:56:13.598Z,4.00
2022-07-27T18:58:41.087Z,4.90
2022-07-27T19:01:09.654Z,5.05
2022-07-27T19:03:37.434Z,4.90
2022-07-27T19:06:07.491Z,4.72
2022-07-27T19:08:35.301Z,7.00
2022-07-27T19:11:02.017Z,6.47
2022-07-27T19:13:28.758Z,5.65
2022-07-27T19:15:55.600Z,7.03
2022-07-27T19:18:25.105Z,7.85
2022-07-27T19:20:53.021Z,5.05
2022-07-27T19:23:19.871Z,4.85
2022-07-27T19:25:47.143Z,5.00
2022-07-27T19:28:16.108Z,5.30
2022-07-27T19:30:43.076Z,6.22
2022-07-27T19:33:10.450Z,5.13
2022-07-27T19:35:38.510Z,4.70
2022-07-27T19:38:05.282Z,5.07
2022-07-27T19:40:47.480Z,5.60
2022-07-27T19:43:17.522Z,5.15
2022-07-27T19:45:44.333Z,5.55
2022-07-27T19:48:11.827Z,5.30
2022-07-27T19:50:38.751Z,5.75
2022-07-27T19:53:05.504Z,5.15
2022-07-27T19:55:32.271Z,5.18
2022-07-27T19:57:59.145Z,5.45
2022-07-27T20:00:25.942Z,4.28
2022-07-27T20:02:52.975Z,5.43
2022-07-27T20:05:20.358Z,5.03
2022-07-27T20:07:47.695Z,4.68
2022-07-27T20:10:14.465Z,5.70
2022-07-27T20:12:41.329Z,4.63
2022-07-27T20:15:08.616Z,5.43
2022-07-27T20:17:40.539Z,5.28
2022-07-27T20:20:09.126Z,5.88
2022-07-27T20:22:36.111Z,4.82
2022-07-27T20:25:03.214Z,5.03
2022-07-27T20:27:30.067Z,5.55
2022-07-27T20:29:56.780Z,5.75
2022-07-27T20:32:23.530Z,4.88
2022-07-27T20:34:50.227Z,5.93
2022-07-27T20:37:17.068Z,4.07
2022-07-27T20:39:44.261Z,5.50
2022-07-27T20:42:11.199Z,5.72
2022-07-27T20:44:38.016Z,4.78
2022-07-27T20:47:06.344Z,5.93
2022-07-27T20:49:34.367Z,5.20
2022-07-27T20:52:01.805Z,5.60
2022-07-27T20:54:29.407Z,4.68
2022-07-27T20:56:56.978Z,5.50
2022-07-27T20:59:24.135Z,4.45
2022-07-27T21:01:52.197Z,5.22
2022-07-27T21:04:19.279Z,5.95
2022-07-27T21:06:46.559Z,5.85
2022-07-27T21:09:14.597Z,4.45
2022-07-27T21:11:41.536Z,5.78
2022-07-27T21:14:09.664Z,4.25
2022-07-27T21:16:37.130Z,4.47
2022-07-27T21:19:04.142Z,5.05
2022-07-27T21:21:30.898Z,5.60
2022-07-27T21:24:17.090Z,4.95
2022-07-27T21:26:48.740Z,5.38
2022-07-27T21:29:16.163Z,5.70
2022-07-27T21:31:46.709Z,5.05
2022-07-27T21:34:16.973Z,5.80
2022-07-27T21:39:10.904Z,5.80
2022-07-27T21:41:38.729Z,5.80
2022-07-27T21:44:05.703Z,6.18
2022-07-27T21:46:32.475Z,4.72
2022-07-27T21:48:59.349Z,4.68
2022-07-27T21:51:26.092Z,5.35
2022-07-27T21:53:52.883Z,6.00
2022-07-27T21:56:19.635Z,5.80
2022-07-27T21:58:46.553Z,6.18
2022-07-27T22:01:14.492Z,6.40
2022-07-27T22:03:41.994Z,5.65
2022-07-27T22:06:10.187Z,5.95
2022-07-27T22:08:37.033Z,6.07
2022-07-27T22:11:04.083Z,5.95
2022-07-27T22:13:30.926Z,5.47
2022-07-27T22:15:57.761Z,6.43
2022-07-27T22:18:24.551Z,6.28
2022-07-27T22:20:51.265Z,5.38
2022-07-27T22:23:18.175Z,4.85
2022-07-27T22:25:44.968Z,5.28
2022-07-27T22:28:11.678Z,5.35
2022-07-27T22:30:40.238Z,5.07
2022-07-27T22:33:08.107Z,5.63
2022-07-27T22:35:35.021Z,5.63
2022-07-27T22:38:01.791Z,5.60
2022-07-27T22:40:28.679Z,4.50
2022-07-27T22:42:55.453Z,5.57
2022-07-27T22:45:22.688Z,4.68
2022-07-27T22:47:49.465Z,5.38
2022-07-27T22:50:18.126Z,5.28
2022-07-27T22:52:45.380Z,5.47
2022-07-27T22:55:12.104Z,5.40
2022-07-27T22:57:38.849Z,5.85
2022-07-27T23:00:06.829Z,4.55
2022-07-27T23:05:00.979Z,4.50
2022-07-27T23:07:27.838Z,5.15
2022-07-27T23:09:56.983Z,4.00
2022-07-27T23:12:24.436Z,5.40
2022-07-27T23:14:51.259Z,5.38
2022-07-27T23:17:17.997Z,5.05
2022-07-27T23:19:44.662Z,4.50
2022-07-27T23:22:11.619Z,5.25
2022-07-27T23:24:41.035Z,5.05
2022-07-27T23:27:08.344Z,5.68
2022-07-27T23:29:35.004Z,4.95
2022-07-27T23:32:03.486Z,5.13
2022-07-27T23:34:30.229Z,4.78
2022-07-27T23:36:56.959Z,5.45
2022-07-27T23:39:23.697Z,5.57
2022-07-27T23:41:50.518Z,5.50
2022-07-27T23:44:17.758Z,5.38
2022-07-27T23:46:44.626Z,4.88
2022-07-27T23:49:11.740Z,4.70
2022-07-27T23:51:38.446Z,5.38
2022-07-27T23:54:05.279Z,4.95
2022-07-27T23:56:32.112Z,5.53
2022-07-27T23:58:58.817Z,6.30
